• Join FlightAware (Why Join?)
  • Login
  • US Flag 
07:34PM EDT


 

Airport Tracker/Info


-or-


 

Live Flight TrackerFlight Track Log ✈ N81HR ✈ 25-Oct-2013 ✈ KSLN - KSDF

Flight Track Log - Related Links

Times and Time Zones

All times are in EDT time to prevent confusion due to time zone crossing. See the N81HR flight status page for this flight to view local times or setup timezone preferences in your user account.

Time Position Orientation Groundspeed Altitude Reporting Facility
EDT Latitude Longitude Course Direction KTS MPH feet Rate Location/Type
02:42PM 38.7403 -97.5700 104° East 231 266 5,500  Level Kansas City Center
02:43PM 38.7397 -97.4653 90° East 277 319 8,900 2,760 Climbing Kansas City Center
02:44PM 38.7389 -97.3450 90° East 317 365 11,300 2,040 Climbing Kansas City Center
02:45PM 38.7870 -96.8182 90° East  Level Estimated
02:45PM 38.7383 -97.2222 90° East 354 407 13,200  Level Kansas City Center
02:46PM 38.7859 -96.6792 90° East  Level Estimated
02:46PM 38.7375 -97.0925 90° East 373 429 15,200  Level Kansas City Center
02:47PM 38.7364 -96.9542 91° East 386 444 17,200 1,740 Climbing Kansas City Center
02:48PM 38.7350 -96.8147 91° East 391 450 18,900 1,740 Climbing Kansas City Center
02:49PM 38.7364 -96.6472 89° East 392 451 20,800 1,620 Climbing Kansas City Center
02:50PM 38.7128 -96.4958 101° East 421 484 22,300 1,380 Climbing Kansas City Center
02:51PM 38.6986 -96.3564 97° East 417 480 23,700 1,500 Climbing Kansas City Center
02:52PM 38.6803 -96.1900 98° East 422 486 25,400 1,500 Climbing Kansas City Center
02:53PM 38.6656 -96.0467 97° East 426 490 26,800 1,260 Climbing Kansas City Center
02:54PM 38.6606 -95.8803 92° East 425 489 28,100 1,080 Climbing Kansas City Center
02:55PM 38.6583 -95.7303 91° East 434 499 29,100 960 Climbing Kansas City Center
02:56PM 38.6572 -95.5542 90° East 445 512 30,200 900 Climbing Kansas City Center
02:57PM 38.6564 -95.4028 90° East 447 514 31,000 360 Climbing Kansas City Center
02:58PM 38.6536 -95.2189 91° East 464 534 31,000  Level Kansas City Center
02:59PM 38.6519 -95.0578 91° East 475 547 31,000 540 Level Kansas City Center
03:00PM 38.6489 -94.8686 91° East 479 551 32,200 1,200 Climbing Kansas City Center
03:01PM 38.6467 -94.7142 91° East 462 532 33,600 1,320 Climbing Kansas City Center
03:02PM 38.6431 -94.5406 91° East 444 511 35,000 1,080 Climbing Kansas City Center
03:03PM 38.6408 -94.3897 91° East 443 510 35,900 960 Climbing Kansas City Center
03:04PM 38.6372 -94.2183 91° East 435 501 37,000 480 Climbing Kansas City Center
03:05PM 38.6328 -94.0675 92° East 441 507 37,000  Level Kansas City Center
03:07PM 38.6289 -93.8833 91° East 463 533 37,000  Level Kansas City Center
03:08PM 38.6247 -93.7158 92° East 470 541 37,000  Level Kansas City Center
03:09PM 38.6214 -93.5442 91° East 477 549 37,000  Level Kansas City Center
03:10PM 38.6172 -93.3711 92° East 482 555 37,000  Level Kansas City Center
03:11PM 38.6114 -93.1978 92° East 485 558 37,000  Level Kansas City Center
03:12PM 38.6058 -93.0256 92° East 483 556 37,000  Level Kansas City Center
03:13PM 38.5997 -92.8172 92° East 484 557 37,000  Level Kansas City Center
03:14PM 38.5931 -92.6417 93° East 487 560 37,000  Level Kansas City Center
03:15PM 38.5875 -92.4650 92° East 490 564 37,000  Level Kansas City Center
03:16PM 38.5811 -92.2889 93° East 492 566 37,000  Level Kansas City Center
03:17PM 38.5731 -92.1119 93° East 493 567 37,000  Level Kansas City Center
03:18PM 38.5667 -91.9378 93° East 489 563 37,000  Level Kansas City Center
03:19PM 38.5594 -91.7628 93° East 489 563 37,000  Level Kansas City Center
03:20PM 38.5528 -91.5867 93° East 491 565 37,000  Level Kansas City Center
03:21PM 38.5433 -91.3750 93° East 493 567 37,000  Level Kansas City Center
03:22PM 38.5336 -91.2017 94° East 498 573 37,000  Level Kansas City Center
03:23PM 38.5253 -91.0261 93° East 498 573 37,000  Level Kansas City Center
03:24PM 38.5156 -90.8525 94° East 497 572 37,000  Level Kansas City Center
03:25PM 38.5067 -90.6656 93° East 499 574 37,000  Level Kansas City Center
03:26PM 38.4958 -90.4889 94° East 498 573 37,000  Level Kansas City Center
03:27PM 38.4864 -90.2958 94° East 499 574 37,000  Level Kansas City Center
03:28PM 38.4778 -90.1222 94° East 499 574 37,000  Level Kansas City Center
03:29PM 38.4678 -89.9506 94° East 493 567 37,000 -540 Level Kansas City Center
03:30PM 38.4564 -89.7767 95° East 493 567 36,000 -1,080 Descending Kansas City Center
03:31PM 38.4450 -89.5572 94° East 496 571 34,800 -1,020 Descending Kansas City Center
03:32PM 38.4339 -89.3839 95° East 493 567 33,900 -840 Descending Kansas City Center
03:33PM 38.4222 -89.2069 95° East 501 577 33,100 -780 Descending Kansas City Center
03:34PM 38.4131 -89.0156 93° East 505 581 32,300 -780 Descending Kansas City Center
03:35PM 38.4056 -88.8381 93° East 505 581 31,500 -840 Descending Kansas City Center
03:37PM 38.3967 -88.6522 93° East 502 578 30,600 -840 Descending Kansas City Center
03:38PM 38.3894 -88.4736 93° East 501 577 29,800 -780 Descending Kansas City Center
03:39PM 38.3828 -88.2950 93° East 502 578 29,000 -600 Descending Kansas City Center
03:39PM 38.3744 -88.1486 94° East 512 589 28,800 -1,320 Descending Indianapolis Center
03:40PM 38.3664 -87.9706 93° East 505 581 26,700 -2,040 Descending Indianapolis Center
03:41PM 38.3564 -87.7967 94° East 494 568 24,700 -1,680 Descending Indianapolis Center
03:42PM 38.3481 -87.6269 94° East 482 555 23,300 -1,920 Descending Indianapolis Center
03:44PM 38.3364 -87.4247 94° East 476 548 20,800 -2,220 Descending Indianapolis Center
03:45PM 38.3264 -87.2653 95° East 457 526 18,800 -1,500 Descending Indianapolis Center
03:46PM 38.3069 -87.1231 100° East 441 507 17,700 -1,620 Descending Indianapolis Center
03:47PM 38.2889 -86.9736 99° East 435 501 15,500 -2,280 Descending Indianapolis Center
03:48PM 38.2672 -86.8011 99° East 416 479 13,100 -2,100 Descending Indianapolis Center
03:49PM 38.2517 -86.6631 98° East 398 458 11,200 -1,260 Descending Indianapolis Center
03:50PM 38.2700 -86.5417 79° East 350 403 10,500 -960 Descending Indianapolis Center
03:51PM 38.2858 -86.4397 79° East 300 345 9,300 -1,080 Descending Indianapolis Center
03:52PM 38.2994 -86.3422 80° East 285 328 8,300 -1,020 Descending Indianapolis Center
03:53PM 38.3114 -86.2458 81° East 277 319 7,300 -1,020 Descending Indianapolis Center
03:54PM 38.3064 -86.1494 94° East 274 315 6,300 -1,080 Descending Indianapolis Center
03:55PM 38.2989 -86.0353 95° East 270 311 5,100 -1,080 Descending Indianapolis Center
03:56PM 38.2950 -85.9450 93° East 262 302 4,100 -480 Descending Indianapolis Center
03:57PM 38.2906 -85.8658 94° East 243 280 4,100 -540 Level Indianapolis Center
03:58PM 38.2861 -85.7900 94° East 226 260 3,000 -840 Descending Indianapolis Center
03:59PM 38.2406 -85.7442 142° Southeast 218 251 2,400 -600 Descending Indianapolis Center
04:02PM 38.1741 -85.7365 113° Southeast  Level Estimated
04:09PM 38.1741 -85.7365 113° Southeast  Level Estimated